Overview Statistics Trail Chart Weather Telemetry Raw packets
 

This is the latest recevied weather packets stored in our database for station/object HECA. If no packets are shown the sender has not sent any weather packets the latest 10 day(s).

<< 35 36 37 38 39 40 41 >>
Time Temp. Humidity Pressure Rain* Wind** Luminosity Snow
1787917403 35.56° C 32% 1007 hPa - - - -
1787916813 35.56° C 32% 1007 hPa - - - -
1787916201 35.56° C 32% 1007 hPa - - - -
1787915601 35° C 34% 1007 hPa - - - -
1787915007 35° C 34% 1007 hPa - - - -
1787914401 33.89° C 41% 1008 hPa - - - -
1787913826 33.89° C 41% 1008 hPa - - - -
1787913203 33.89° C 41% 1008 hPa - - - -
1787912603 33.89° C 41% 1008 hPa - - - -
1787912003 33.89° C 41% 1008 hPa - - - -
1787911403 - - 1020 hPa - - - -
1787910807 - - 1020 hPa - - - -
1787910203 - - 1020 hPa - - - -
1787909601 30.56° C 52% 1009 hPa - - - -
1787909005 30.56° C 52% 1009 hPa - - - -
1787908402 30.56° C 52% 1009 hPa - - - -
1787907804 30.56° C 52% 1009 hPa - - - -
1787907202 30° C 58% 1009 hPa - - - -
1787906604 30° C 58% 1009 hPa - - - -
1787906003 30° C 58% 1009 hPa - - - -
1787905402 30° C 58% 1009 hPa - - - -
1787904798 22.78° C 88% 1009 hPa - - - -
1787904203 22.78° C 88% 1009 hPa - - - -
1787903600 28.89° C 58% 1009 hPa - - - -
1787903001 28.89° C 58% 1009 hPa - - - -

* Rain since midnight (hover to see other rain measurements)
** Current wind speed in m/s (hover to see current wind gust speed)